x

Long Key, Fl (lonf1) Weather Station

7:00pm - Sun 21st Sep 2014 All times are CDT. -4 hours from GMT.

  • Wind
    2mph, 3mph gusts
  • Sea Temp 86°f
  • Air Temp 84°f
  • Sea Pressure 1015.6mb
  • Long Key, Fl
  • Long Key, Fl

More Historic Weather Station data

Upgrade to MSW Pro to gain access to the past 30 days of data for over 8000 Wavebouys and Weather Stations around the globe.

Join Pro

Comparision Forecast

View Surf forecast
   
Sun 09/21 7:00pm 2 3 mph 1015.6mb 86f 84f
6:00pm 6 7 mph 1015.7mb 86f 85f
5:00pm 5 6 mph 1015.3mb 86f 85f
4:00pm 1 2 mph 1015.8mb 86f 85f
3:00pm 5 6 mph 1016.2mb 86f 85f
2:00pm 5
mph
1016.5mb 86f 84f
1:00pm 5
mph
1016.7mb 85f 85f
12:00pm 3 5 mph 1016.9mb 85f 84f
11:00am 1
mph
1017mb 85f 85f
10:00am 3 5 mph 1016.9mb 84f 83f
9:00am 5 6 mph 1016.7mb 84f 83f
8:00am 6
mph
1016.5mb 84f 81f
7:00am 6 7 mph 1015.6mb 84f 81f
6:00am 7 8 mph 1014.6mb 84f 80f
5:00am 9 10 mph 1014.2mb 84f 80f
4:00am 14 16 mph 1014.5mb 84f 81f
3:00am 10 13 mph 1015mb 84f 81f
2:00am 5
mph
1015.7mb 85f 81f
1:00am 2 3 mph 1016.4mb 85f 81f
12:00am 6 7 mph 1016.3mb 85f 80f
Sat 09/20 11:00pm 6 8 mph 1016.4mb 85f 80f
10:00pm 10 13 mph 1015.6mb 85f 80f
9:00pm 14 16 mph 1014.7mb 85f 80f
8:00pm 14 16 mph 1014.7mb 85f 80f
7:00pm 14 15 mph 1014.1mb 85f 81f
6:00pm 17 18 mph 1013.7mb 86f 81f
5:00pm 10 11 mph 1013mb 85f 84f
4:00pm 7 8 mph 1012.8mb 85f 84f
3:00pm 11 13 mph 1013mb 85f 84f
2:00pm 11
mph
1013.6mb 85f 84f
1:00pm 11 14 mph 1014.1mb 85f 84f
12:00pm 11 13 mph 1014.5mb 85f 84f
11:00am 6 8 mph 1014.8mb 85f 83f
10:00am 10 13 mph 1014.6mb 85f 84f
9:00am 9 10 mph 1014.3mb 84f 84f
8:00am 14 15 mph 1014.1mb 84f 83f
7:00am 5
mph
1013.9mb 84f 82f
6:00am 2 3 mph 1013.6mb 85f 81f
5:00am 3 5 mph 1013.4mb 85f 81f
4:00am 6 7 mph 1013.4mb 85f 80f
3:00am 6
mph
1013.8mb 85f 82f
2:00am 2
mph
1014.4mb 85f 83f
1:00am  -  1 mph 1014.9mb 85f 83f
12:00am  -  2 mph 1015.2mb 85f 83f
Fri 09/19 11:00pm 5 6 mph 1015.7mb 85f 83f
10:00pm 5 6 mph 1015.4mb 85f 83f
9:00pm 5 7 mph 1014.6mb 85f 83f
8:00pm 1 2 mph 1014.5mb 85f 83f
7:00pm 6 7 mph 1014.3mb 85f 82f
6:00pm 6 7 mph 1013.5mb 86f 82f
5:00pm 2 3 mph 1013.3mb 86f 82f
4:00pm 2 3 mph 1013.6mb 86f 84f
3:00pm 5 7 mph 1014mb 85f 83f
2:00pm 8 9 mph 1014.5mb 85f 84f
1:00pm 10 11 mph 1015.2mb 85f 83f
12:00pm 8 9 mph 1015.7mb 85f 84f
11:00am 9 10 mph 1015.3mb 85f 83f
10:00am 5 6 mph 1015.6mb 85f 83f
9:00am 6 7 mph 1015.4mb 85f 83f
8:00am 8
mph
1014.7mb 85f 83f
7:00am 5 6 mph 1014.2mb 85f 83f
6:00am 8 9 mph 1013.5mb 85f 83f
5:00am 8 9 mph 1013.4mb 85f 83f
4:00am 6 7 mph 1013.3mb 86f 82f
3:00am 7 9 mph 1013.7mb 86f 82f
2:00am 5 6 mph 1014.1mb 86f 83f
1:00am 6 7 mph 1014.6mb 86f 83f
12:00am 5
mph
1014.8mb 86f 83f
Thu 09/18 11:00pm 5 6 mph 1014.6mb 86f 82f
10:00pm 3 5 mph 1014.6mb 86f 82f
9:00pm 6 7 mph 1014.3mb 86f 83f
8:00pm 7 8 mph 1013.6mb 87f 82f
7:00pm 6 7 mph 1013.2mb 87f 82f
6:00pm 3 5 mph 1013mb 87f 82f
5:00pm 1
mph
1013.6mb 87f 81f
4:00pm 2 3 mph 1013.6mb 87f 75f
3:00pm 1 5 mph 1013.9mb 87f 82f
2:00pm 8 9 mph 1014.1mb 87f 84f
1:00pm 2 3 mph 1014.7mb 86f 87f
12:00pm 2 3 mph 1015.1mb 85f 88f
11:00am  -  1 mph 1015.5mb 85f 82f
10:00am 3 5 mph 1015.1mb 85f 83f
9:00am 7 8 mph 1014.7mb 85f 83f
8:00am 7 8 mph 1014.1mb 85f 82f
7:00am 8 9 mph 1013.6mb 85f 82f
6:00am 6 7 mph 1013.2mb 85f 82f
5:00am 3
mph
1012.8mb 85f 81f
4:00am  -  1 mph 1012.8mb 86f 81f
3:00am  -  1 mph 1013.5mb 86f 82f
2:00am 3 5 mph 1014.3mb 86f 82f
1:00am 7 8 mph 1014.9mb 86f 82f